Time;durP1;ratioP1;P1;durP2;ratioP2;P2;SDS_P1;SDS_P2;PMS_P1;PMS_P2;Temp;Humidity;BMP_temperature;BMP_pressure;BME280_temperature;BME280_humidity;BME280_pressure;Samples;Min_cycle;Max_cycle;Signal;HPM_P1;HPM_P2
2023/08/17 00:01:30;;;;;;;19.48;11.27;;;;;;;-145.63;53.72;38742.66;5124461;28;20031;-64
2023/08/17 00:03:56;;;;;;;13.90;10.82;;;;;;;-145.63;53.85;38748.50;5117861;28;20048;-64
2023/08/17 00:06:21;;;;;;;17.27;12.57;;;;;;;-145.63;54.00;38728.97;5136815;27;20031;-64
2023/08/17 00:08:47;;;;;;;21.25;12.80;;;;;;;-145.63;54.12;38719.19;5136817;27;20366;-64
2023/08/17 00:11:12;;;;;;;14.02;10.77;;;;;;;-145.63;54.05;38748.50;5126753;27;20193;-64
2023/08/17 00:13:38;;;;;;;18.40;11.57;;;;;;;-145.63;53.95;38711.38;5145246;27;20041;-65
2023/08/17 00:16:04;;;;;;;15.20;10.63;;;;;;;-145.63;53.84;38723.09;5126711;27;20031;-64
2023/08/17 00:18:30;;;;;;;16.00;12.20;;;;;;;-145.63;53.98;38754.38;5137840;27;20030;-66
2023/08/17 00:20:56;;;;;;;23.77;12.60;;;;;;;-145.63;54.17;38754.38;5118000;28;20027;-64
2023/08/17 00:23:21;;;;;;;14.50;11.55;;;;;;;-145.63;54.40;38750.47;5127512;27;20027;-64
2023/08/17 00:25:48;;;;;;;16.20;11.70;;;;;;;-145.63;54.24;38672.25;5144863;27;20142;-65
2023/08/17 00:28:14;;;;;;;19.40;11.63;;;;;;;-145.63;54.17;38746.56;5125026;27;20051;-65
2023/08/17 00:30:39;;;;;;;17.25;11.68;;;;;;;-145.63;54.30;38734.81;5136859;27;20316;-64
2023/08/17 00:33:05;;;;;;;15.52;10.68;;;;;;;-145.63;54.20;38738.75;5133855;27;20061;-64
2023/08/17 00:35:32;;;;;;;15.90;11.18;;;;;;;-145.63;54.21;38727.00;5139631;27;20385;-64
2023/08/17 00:37:59;;;;;;;19.17;12.68;;;;;;;-145.63;54.32;38728.97;5124088;28;20317;-65
2023/08/17 00:40:25;;;;;;;19.35;10.52;;;;;;;-145.63;54.04;38768.06;5139292;27;20024;-64
2023/08/17 00:42:51;;;;;;;21.70;11.82;;;;;;;-145.63;54.32;38766.13;5119248;28;20078;-65
2023/08/17 00:45:18;;;;;;;18.58;11.40;;;;;;;-145.63;54.53;38185.38;5123735;28;20133;-64
2023/08/17 00:47:44;;;;;;;15.32;10.77;;;;;;;-145.63;54.34;38762.22;5130337;27;20030;-64
2023/08/17 00:50:11;;;;;;;14.82;10.18;;;;;;;-145.63;54.37;38764.16;5142553;27;20373;-65
2023/08/17 00:52:38;;;;;;;16.17;10.90;;;;;;;-145.63;54.44;38752.44;5123570;28;20020;-65
2023/08/17 00:55:05;;;;;;;14.05;10.00;;;;;;;-145.63;54.59;38777.84;5135513;27;20358;-64
2023/08/17 00:57:31;;;;;;;18.13;10.52;;;;;;;-145.63;54.59;38820.88;5123499;28;20073;-65
2023/08/17 00:59:58;;;;;;;15.75;9.80;;;;;;;-145.63;54.81;38793.50;5123346;28;20339;-64
2023/08/17 01:02:24;;;;;;;17.73;10.73;;;;;;;-145.63;54.68;38762.22;5122947;28;20419;-65
2023/08/17 01:04:50;;;;;;;17.83;11.10;;;;;;;-145.63;54.76;38771.97;5123730;28;20068;-64
2023/08/17 01:07:15;;;;;;;16.15;10.80;;;;;;;-145.63;54.79;38748.50;5123099;28;20027;-64
2023/08/17 01:09:41;;;;;;;14.18;11.10;;;;;;;-145.63;54.80;38785.66;5138076;28;20046;-64
2023/08/17 01:12:29;;;;;;;20.30;11.18;;;;;;;-145.63;54.85;38773.94;5130291;28;20312;-65
2023/08/17 01:15:04;;;;;;;20.98;11.15;;;;;;;-145.63;55.00;38820.88;5131408;28;20127;-65
2023/08/17 01:17:40;;;;;;;18.25;11.35;;;;;;;-145.63;54.70;38760.25;5142307;28;20072;-63
2023/08/17 01:20:09;;;;;;;15.50;11.68;;;;;;;-145.63;55.03;38805.22;5146189;27;20023;-65
2023/08/17 01:22:36;;;;;;;17.35;11.65;;;;;;;-145.63;55.00;38766.13;5127800;28;20031;-64
2023/08/17 01:25:03;;;;;;;16.05;10.55;;;;;;;-145.63;55.17;38791.53;5144984;27;20039;-67
2023/08/17 01:27:39;;;;;;;19.02;12.00;;;;;;;-145.63;54.86;38642.91;5135378;27;20030;-65
2023/08/17 01:30:06;;;;;;;17.33;12.20;;;;;;;-145.63;54.95;38789.59;5136734;27;20052;-64
2023/08/17 01:32:48;;;;;;;15.45;11.38;;;;;;;-145.63;55.17;38863.88;5134523;27;20324;-64
2023/08/17 01:35:27;;;;;;;18.55;12.43;;;;;;;-145.63;55.17;38803.28;5146050;27;20095;-65
2023/08/17 01:37:55;;;;;;;15.15;11.13;;;;;;;-145.63;55.18;38801.31;5127608;28;20174;-64
2023/08/17 01:40:22;;;;;;;18.73;12.57;;;;;;;-145.63;55.22;38795.44;5146815;27;20249;-65
2023/08/17 01:42:50;;;;;;;18.27;12.20;;;;;;;-145.63;55.34;38805.22;5127366;28;20078;-65
2023/08/17 01:45:16;;;;;;;18.92;11.45;;;;;;;-145.63;55.26;38793.50;5127114;28;20030;-65
2023/08/17 01:47:42;;;;;;;16.90;11.77;;;;;;;-145.63;55.38;38781.75;5127371;28;20086;-65
2023/08/17 01:50:08;;;;;;;16.13;11.20;;;;;;;-145.63;54.98;38785.66;5127902;27;20228;-64
2023/08/17 01:52:33;;;;;;;18.20;10.88;;;;;;;-145.63;55.23;38824.78;5129112;27;20300;-64
2023/08/17 01:54:59;;;;;;;13.82;10.65;;;;;;;-145.63;55.21;38836.50;5127667;27;20038;-64
2023/08/17 01:57:24;;;;;;;17.27;11.63;;;;;;;-145.63;55.27;38807.19;5138051;27;20038;-64
2023/08/17 01:59:50;;;;;;;17.88;11.75;;;;;;;-145.63;55.54;38793.50;5140733;27;20031;-65
2023/08/17 02:02:17;;;;;;;18.33;12.35;;;;;;;-145.63;55.76;38818.91;5121494;28;20036;-64
2023/08/17 02:04:42;;;;;;;15.20;10.68;;;;;;;-145.63;55.81;38809.13;5106509;28;20027;-64
2023/08/17 02:07:08;;;;;;;17.88;10.50;;;;;;;-145.63;55.67;38840.44;5124156;28;20301;-65
2023/08/17 02:09:33;;;;;;;15.85;10.35;;;;;;;-145.63;55.35;38818.91;5139626;27;20331;-65
2023/08/17 02:11:59;;;;;;;17.15;10.60;;;;;;;-145.63;55.84;38838.47;5142158;27;20254;-63
2023/08/17 02:14:25;;;;;;;17.50;10.90;;;;;;;-145.63;55.76;38824.78;5144250;27;20019;-65
2023/08/17 02:16:52;;;;;;;17.83;11.20;;;;;;;-145.63;55.55;38803.28;5126674;28;20072;-63
2023/08/17 02:19:24;;;;;;;17.38;10.80;;;;;;;-145.63;55.76;38781.75;5146627;27;20051;-65
2023/08/17 02:21:50;;;;;;;13.50;10.20;;;;;;;-145.63;55.67;38816.97;5132127;27;20038;-65
2023/08/17 02:24:15;;;;;;;18.23;11.55;;;;;;;-145.63;55.38;38793.50;5136487;27;20026;-65
2023/08/17 02:26:41;;;;;;;16.20;10.68;;;;;;;-145.63;55.66;38818.91;5133434;27;20201;-65
2023/08/17 02:29:07;;;;;;;16.50;10.95;;;;;;;-145.63;55.72;38844.34;5146774;27;20072;-65
2023/08/17 02:31:32;;;;;;;16.73;10.27;;;;;;;-145.63;55.75;38832.59;5107314;28;20061;-65
2023/08/17 02:34:00;;;;;;;15.15;11.60;;;;;;;-145.63;55.66;38727.00;5126324;28;20020;-66
2023/08/17 02:36:27;;;;;;;14.98;10.10;;;;;;;-145.63;55.69;38818.91;5137733;27;20019;-65
2023/08/17 02:38:53;;;;;;;15.30;10.57;;;;;;;-145.63;55.76;38789.59;5140208;27;20087;-64
2023/08/17 02:41:18;;;;;;;13.68;10.07;;;;;;;-145.63;55.91;38787.63;5119810;28;20090;-65
2023/08/17 02:43:44;;;;;;;18.52;11.20;;;;;;;-145.63;55.82;38816.97;5126407;28;20027;-65
2023/08/17 02:46:10;;;;;;;14.07;10.18;;;;;;;-145.63;55.54;38795.44;5143578;27;20027;-65
2023/08/17 02:48:36;;;;;;;14.52;10.35;;;;;;;-145.63;56.09;38832.59;5133427;27;20027;-65
2023/08/17 02:51:01;;;;;;;19.25;10.63;;;;;;;-145.63;56.03;38828.69;5128480;27;20080;-64
2023/08/17 02:53:27;;;;;;;11.93;10.15;;;;;;;-145.63;56.08;38824.78;5127311;27;20034;-64
2023/08/17 02:55:53;;;;;;;15.20;10.52;;;;;;;-145.63;56.09;38809.13;5125642;28;20046;-64
2023/08/17 02:58:19;;;;;;;12.82;9.73;;;;;;;-145.63;56.30;38805.22;5141489;27;20031;-66
2023/08/17 03:00:44;;;;;;;13.73;9.57;;;;;;;-145.63;56.24;38813.03;5126206;27;20031;-67
2023/08/17 03:03:10;;;;;;;14.73;9.95;;;;;;;-145.63;55.90;38811.09;5125344;28;20034;-65
2023/08/17 03:05:36;;;;;;;16.25;9.85;;;;;;;-145.63;55.70;38797.41;5111523;27;20027;-64
2023/08/17 03:08:01;;;;;;;12.48;9.98;;;;;;;-145.63;56.05;38818.91;5139032;27;20023;-63
2023/08/17 03:10:27;;;;;;;14.82;9.27;;;;;;;-145.63;55.96;38801.31;5129372;27;20081;-64
2023/08/17 03:12:53;;;;;;;14.10;9.95;;;;;;;-145.63;55.75;38777.84;5134767;27;20019;-66
2023/08/17 03:15:18;;;;;;;17.20;10.07;;;;;;;-145.63;55.53;38779.81;5125449;28;20047;-67
2023/08/17 03:17:44;;;;;;;13.73;9.88;;;;;;;-145.63;55.78;38813.03;5130736;27;20030;-67
2023/08/17 03:20:10;;;;;;;13.65;10.00;;;;;;;-145.63;55.78;38770.03;5145798;27;20034;-66
2023/08/17 03:22:35;;;;;;;12.30;9.70;;;;;;;-145.63;55.95;38791.53;5124786;28;20024;-65
2023/08/17 03:25:02;;;;;;;15.25;10.38;;;;;;;-145.63;55.86;38756.34;5141447;27;20348;-65
2023/08/17 03:27:32;;;;;;;17.80;10.30;;;;;;;-145.63;55.76;38746.56;5134073;27;20099;-65
2023/08/17 03:29:58;;;;;;;15.85;9.63;;;;;;;-145.63;56.13;38797.41;5132255;27;20803;-65
2023/08/17 03:32:23;;;;;;;14.93;10.13;;;;;;;-145.63;56.24;38754.38;5131013;27;20045;-65
2023/08/17 03:34:49;;;;;;;16.70;10.25;;;;;;;-145.63;55.68;38793.50;5145632;27;20072;-64
2023/08/17 03:37:14;;;;;;;17.45;9.82;;;;;;;-145.63;55.61;38762.22;5125964;27;20042;-64
2023/08/17 03:39:40;;;;;;;18.40;10.57;;;;;;;-145.63;55.88;38727.00;5138180;27;20319;-64
2023/08/17 03:42:07;;;;;;;19.40;10.27;;;;;;;-145.63;55.51;38715.28;5129942;27;20023;-65
2023/08/17 03:44:32;;;;;;;13.13;8.57;;;;;;;-145.63;55.29;38717.22;5124463;28;20031;-65
2023/08/17 03:46:58;;;;;;;13.55;8.88;;;;;;;-145.63;54.92;38676.16;5124973;28;20201;-65
2023/08/17 03:49:24;;;;;;;13.02;8.70;;;;;;;-145.63;54.68;38721.13;5124620;28;20073;-65
2023/08/17 03:51:49;;;;;;;13.88;8.68;;;;;;;-145.63;54.64;38816.97;5109005;28;20174;-64
2023/08/17 03:54:17;;;;;;;8.88;7.78;;;;;;;-145.63;54.34;38666.38;5128628;27;20031;-64
2023/08/17 03:56:42;;;;;;;12.90;8.90;;;;;;;-145.63;53.74;38699.63;5129243;27;20319;-64
2023/08/17 03:59:08;;;;;;;11.68;8.70;;;;;;;-145.63;53.61;38670.28;5144832;27;20067;-64
2023/08/17 04:01:34;;;;;;;15.98;7.82;;;;;;;-145.63;53.69;38664.44;5124479;28;20059;-64
2023/08/17 04:03:59;;;;;;;12.63;8.38;;;;;;;-145.63;53.48;38640.97;5124504;28;20044;-63
2023/08/17 04:06:25;;;;;;;10.48;7.50;;;;;;;-145.63;53.32;38676.16;5135201;27;20224;-64
2023/08/17 04:08:51;;;;;;;12.73;8.13;;;;;;;-145.63;53.07;38603.81;5139370;27;20029;-64
2023/08/17 04:11:16;;;;;;;13.45;7.97;;;;;;;-145.63;52.77;38664.44;5125031;27;20030;-64
2023/08/17 04:13:42;;;;;;;11.07;8.02;;;;;;;-145.63;52.83;38629.22;5145301;27;20050;-64
2023/08/17 04:16:07;;;;;;;13.27;6.80;;;;;;;-145.63;50.93;38625.31;5110153;28;20031;-63
2023/08/17 04:18:33;;;;;;;10.85;7.70;;;;;;;-145.63;52.46;38601.84;5135798;27;20224;-66
2023/08/17 04:20:59;;;;;;;11.57;7.60;;;;;;;-145.63;52.60;38572.53;5138351;27;20031;-65
2023/08/17 04:23:24;;;;;;;13.77;7.90;;;;;;;-145.63;52.23;38613.59;5107475;27;20028;-64
2023/08/17 04:25:50;;;;;;;9.77;7.60;;;;;;;-145.63;51.70;38596.00;5144895;27;20033;-64
2023/08/17 04:28:15;;;;;;;10.98;7.38;;;;;;;-145.63;51.10;38551.03;5108129;28;20027;-65
2023/08/17 04:30:41;;;;;;;10.00;6.20;;;;;;;-145.63;51.26;38586.22;5130891;27;20027;-65
2023/08/17 04:33:07;;;;;;;9.98;6.72;;;;;;;-145.63;50.65;38617.50;5129039;27;20047;-64
2023/08/17 04:35:33;;;;;;;21.98;6.70;;;;;;;-145.63;49.92;38552.97;5127218;27;20032;-64
2023/08/17 04:37:59;;;;;;;15.57;6.90;;;;;;;-145.63;50.59;38554.94;5144667;27;20034;-64
2023/08/17 04:40:25;;;;;;;12.55;6.38;;;;;;;-145.63;50.28;38584.25;5125330;27;20335;-64
2023/08/17 04:42:51;;;;;;;18.42;7.65;;;;;;;-145.63;50.20;38551.03;5123781;28;20064;-64
2023/08/17 04:45:17;;;;;;;12.30;5.57;;;;;;;-145.63;47.53;38506.03;5132869;27;20023;-64
2023/08/17 04:47:43;;;;;;;7.07;4.80;;;;;;;-145.63;47.86;38472.81;5140314;27;20103;-65
2023/08/17 04:50:09;;;;;;;9.85;5.97;;;;;;;-145.63;48.55;38470.84;5124012;28;20027;-64
2023/08/17 04:52:34;;;;;;;9.73;5.32;;;;;;;-145.63;48.16;38478.66;5123233;28;20117;-64
2023/08/17 04:55:00;;;;;;;8.93;5.97;;;;;;;-145.63;47.89;38472.81;5128309;27;20043;-64
2023/08/17 04:57:27;;;;;;;9.50;6.15;;;;;;;-145.63;48.98;38449.34;5124747;28;20062;-63
2023/08/17 04:59:53;;;;;;;7.47;5.75;;;;;;;-145.63;48.88;38388.72;5122925;28;20022;-65
2023/08/17 05:02:19;;;;;;;9.88;5.55;;;;;;;-145.63;48.25;38420.00;5122638;28;20035;-65
2023/08/17 05:04:46;;;;;;;5.68;4.65;;;;;;;-145.63;47.28;38380.91;5123546;28;20336;-65
2023/08/17 05:07:12;;;;;;;6.25;4.82;;;;;;;-145.63;46.00;38353.53;5105072;28;20170;-65
2023/08/17 05:09:38;;;;;;;10.18;5.65;;;;;;;-145.63;45.81;38253.81;5123311;28;20061;-66
2023/08/17 05:12:03;;;;;;;13.38;4.95;;;;;;;-145.63;45.59;38156.06;5129036;28;20094;-65
2023/08/17 05:14:29;;;;;;;9.65;4.95;;;;;;;-145.63;44.71;38142.38;5125332;28;20236;-65
2023/08/17 05:16:55;;;;;;;8.02;4.07;;;;;;;-145.63;43.32;38159.97;5144311;28;20023;-65
2023/08/17 05:19:20;;;;;;;8.07;4.88;;;;;;;-145.63;42.75;38130.63;5126140;28;20027;-66
2023/08/17 05:21:46;;;;;;;8.77;4.47;;;;;;;-145.63;41.82;38163.88;5123561;28;20032;-67
2023/08/17 05:24:12;;;;;;;8.05;4.05;;;;;;;-145.63;42.89;38171.69;5123062;28;20019;-66
2023/08/17 05:26:37;;;;;;;9.73;4.75;;;;;;;-145.63;43.29;38156.06;5126416;28;20023;-66
2023/08/17 05:29:04;;;;;;;8.38;4.97;;;;;;;-145.63;42.91;38220.56;5128571;28;20127;-65
2023/08/17 05:31:29;;;;;;;7.07;4.60;;;;;;;-145.63;43.33;38238.16;5123095;28;20423;-65
2023/08/17 05:33:55;;;;;;;6.55;4.15;;;;;;;-145.63;42.87;38171.69;5137369;28;20026;-65
2023/08/17 05:36:20;;;;;;;6.53;4.55;;;;;;;-145.63;43.02;38183.44;5134125;27;20026;-64
2023/08/17 05:38:46;;;;;;;7.65;4.60;;;;;;;-145.63;42.46;38163.88;5127426;28;20132;-65
2023/08/17 05:41:12;;;;;;;5.95;4.00;;;;;;;-145.63;42.54;38163.88;5136286;28;20038;-65
2023/08/17 05:43:37;;;;;;;6.10;3.75;;;;;;;-145.63;41.20;38199.06;5123312;28;20015;-65
2023/08/17 05:46:03;;;;;;;6.32;3.85;;;;;;;-145.63;41.48;38154.09;5123343;28;20031;-65
2023/08/17 05:48:29;;;;;;;5.00;3.67;;;;;;;-145.63;42.12;38144.31;5133468;28;20256;-65
2023/08/17 05:50:58;;;;;;;7.43;4.10;;;;;;;-145.63;41.40;38140.41;5138236;28;20310;-65
2023/08/17 05:53:23;;;;;;;4.72;3.40;;;;;;;-145.63;40.24;38142.38;5123003;28;20038;-66
2023/08/17 05:55:49;;;;;;;4.32;2.92;;;;;;;-145.63;39.03;38089.56;5123333;28;20083;-64
2023/08/17 05:58:15;;;;;;;5.40;3.08;;;;;;;-145.63;39.50;38056.34;5130056;28;20032;-65
2023/08/17 06:00:41;;;;;;;7.90;3.40;;;;;;;-145.63;40.79;38062.22;5134702;28;20023;-66
2023/08/17 06:03:07;;;;;;;6.88;3.88;;;;;;;-145.63;40.61;38040.69;5129575;28;20054;-65
2023/08/17 06:05:33;;;;;;;4.22;3.42;;;;;;;-145.63;39.35;38056.34;5123031;28;20352;-64
2023/08/17 06:07:59;;;;;;;6.47;3.65;;;;;;;-145.63;39.86;38007.47;5126309;28;20042;-63
2023/08/17 06:10:25;;;;;;;7.20;3.20;;;;;;;-145.63;41.04;37999.66;5133011;27;20031;-66
2023/08/17 06:12:55;;;;;;;6.88;3.63;;;;;;;-145.63;41.67;38034.84;5126754;28;20031;-65
2023/08/17 06:15:22;;;;;;;8.15;3.97;;;;;;;-145.63;41.13;38013.31;5124970;28;20238;-65
2023/08/17 06:17:51;;;;;;;5.47;3.90;;;;;;;-145.63;41.34;37984.00;5126384;27;20039;-65
2023/08/17 06:20:18;;;;;;;11.77;3.60;;;;;;;-145.63;41.17;37997.69;5122045;28;20031;-65
2023/08/17 06:22:44;;;;;;;7.32;3.70;;;;;;;-145.63;40.51;37984.00;5128723;27;20031;-64
2023/08/17 06:25:10;;;;;;;4.45;2.40;;;;;;;-145.63;38.59;37958.59;5137110;27;20027;-65
2023/08/17 06:27:36;;;;;;;4.93;3.22;;;;;;;-145.63;39.90;37991.81;5136730;27;20032;-64
2023/08/17 06:30:03;;;;;;;5.70;3.67;;;;;;;-145.63;40.46;37962.50;5126522;28;20030;-64
2023/08/17 06:32:31;;;;;;;6.80;3.92;;;;;;;-145.63;39.50;37970.31;5127952;27;20114;-64
2023/08/17 06:34:57;;;;;;;4.15;3.05;;;;;;;-145.63;39.04;37956.63;5146983;27;20372;-63
2023/08/17 06:37:23;;;;;;;4.97;2.97;;;;;;;-145.63;39.65;37919.47;5129490;27;20020;-62
2023/08/17 06:39:49;;;;;;;5.70;3.35;;;;;;;-145.63;39.33;37888.22;5122547;28;20053;-64
2023/08/17 06:42:14;;;;;;;5.10;3.17;;;;;;;-145.63;39.39;37886.25;5121752;28;20169;-63
2023/08/17 06:44:40;;;;;;;4.38;2.80;;;;;;;-145.63;37.58;37851.06;5126205;28;20035;-64
2023/08/17 06:47:06;;;;;;;9.27;3.75;;;;;;;-145.63;38.98;37837.38;5125068;28;20028;-63
2023/08/17 06:49:32;;;;;;;7.30;3.25;;;;;;;-145.63;39.29;37825.66;5124777;27;20223;-63
2023/08/17 06:51:57;;;;;;;5.43;2.83;;;;;;;-145.63;38.12;37833.47;5125647;27;20032;-64
2023/08/17 06:54:23;;;;;;;6.57;3.45;;;;;;;-145.63;38.56;37839.31;5129192;27;20443;-65
2023/08/17 06:56:49;;;;;;;6.30;2.92;;;;;;;-145.63;38.52;37884.28;5111424;27;20192;-64
2023/08/17 06:59:14;;;;;;;3.75;2.63;;;;;;;-145.63;38.11;37884.28;5128431;27;20079;-62
2023/08/17 07:01:40;;;;;;;6.25;2.97;;;;;;;-145.63;38.39;37831.50;5121113;28;20027;-62
2023/08/17 07:04:06;;;;;;;4.07;2.35;;;;;;;-145.63;36.78;37780.69;5122248;28;20063;-64
2023/08/17 07:06:31;;;;;;;2.97;2.42;;;;;;;-145.63;37.28;37800.22;5135326;27;20054;-64
2023/08/17 07:08:57;;;;;;;4.47;2.58;;;;;;;-145.63;36.99;37829.56;5141304;27;20320;-64
2023/08/17 07:11:22;;;;;;;3.33;2.42;;;;;;;-145.63;36.87;37831.50;5125456;28;20023;-63
2023/08/17 07:13:48;;;;;;;3.58;3.00;;;;;;;-145.63;37.61;37774.81;5146041;27;20049;-63
2023/08/17 07:16:14;;;;;;;6.55;2.90;;;;;;;-145.63;36.21;37792.41;5130269;27;20031;-63
2023/08/17 07:18:40;;;;;;;4.82;2.80;;;;;;;-145.63;37.35;37722.03;5125124;28;20019;-65
2023/08/17 07:21:05;;;;;;;5.82;2.78;;;;;;;-145.63;36.03;37700.53;5113230;27;20035;-63
2023/08/17 07:23:31;;;;;;;5.43;2.60;;;;;;;-145.63;33.82;37702.47;5144832;27;20583;-64
2023/08/17 07:25:57;;;;;;;7.43;5.47;;;;;;;-145.63;35.62;37690.75;5107297;28;20060;-63
2023/08/17 07:28:23;;;;;;;6.55;3.60;;;;;;;-145.63;36.23;37643.84;5129282;27;20027;-62
2023/08/17 07:30:48;;;;;;;5.55;2.75;;;;;;;-145.63;35.88;37714.22;5133701;27;20028;-64
2023/08/17 07:33:14;;;;;;;6.40;3.58;;;;;;;-145.63;36.77;37684.88;5125121;28;20024;-64
2023/08/17 07:35:40;;;;;;;7.57;3.42;;;;;;;-145.63;36.79;37657.50;5125110;28;20308;-64
2023/08/17 07:38:05;;;;;;;4.32;2.78;;;;;;;-145.63;35.15;37682.94;5125180;28;20359;-65
2023/08/17 07:40:31;;;;;;;6.13;3.08;;;;;;;-145.63;35.74;37622.31;5141207;27;20054;-63
2023/08/17 07:42:57;;;;;;;6.07;3.75;;;;;;;-145.63;37.59;37686.84;5124910;28;20024;-64
2023/08/17 07:45:22;;;;;;;5.03;3.10;;;;;;;-145.63;36.32;37645.78;5124710;28;20095;-63
2023/08/17 07:47:48;;;;;;;4.75;3.17;;;;;;;-145.63;35.55;37675.09;5128226;27;20216;-63
2023/08/17 07:50:13;;;;;;;6.05;3.90;;;;;;;-145.63;35.23;37653.59;5133692;27;20034;-63
2023/08/17 07:52:39;;;;;;;8.07;3.00;;;;;;;-145.63;35.12;37569.53;5128153;27;20035;-64
2023/08/17 07:55:05;;;;;;;9.55;4.80;;;;;;;-145.63;35.96;37616.47;5131051;27;20033;-64
2023/08/17 07:57:31;;;;;;;4.07;2.65;;;;;;;-145.63;34.49;37645.78;5133639;27;20034;-64
2023/08/17 07:59:56;;;;;;;3.08;2.65;;;;;;;-145.63;33.10;37673.16;5141287;27;20020;-64
2023/08/17 08:02:22;;;;;;;3.95;2.47;;;;;;;-145.63;34.93;37581.28;5124188;28;20039;-64
2023/08/17 08:04:47;;;;;;;3.78;2.88;;;;;;;-145.63;33.81;37620.38;5124479;28;20042;-64
2023/08/17 08:07:13;;;;;;;4.30;2.97;;;;;;;-145.63;34.54;37577.38;5105951;28;20449;-63
2023/08/17 08:09:39;;;;;;;3.95;2.83;;;;;;;-145.63;34.58;37538.25;5133823;27;20267;-64
2023/08/17 08:12:05;;;;;;;5.93;3.67;;;;;;;-145.63;34.87;37507.00;5126152;27;20420;-64
2023/08/17 08:14:31;;;;;;;6.10;3.55;;;;;;;-145.63;34.42;37520.66;5124793;27;20344;-69
2023/08/17 08:16:56;;;;;;;6.57;2.72;;;;;;;-145.63;34.07;37514.81;5145030;27;20048;-64
2023/08/17 08:19:22;;;;;;;5.70;3.20;;;;;;;-145.63;34.57;37518.72;5128456;27;20220;-63
2023/08/17 08:21:48;;;;;;;6.32;3.67;;;;;;;-145.63;34.39;37483.53;5135569;27;20037;-64
2023/08/17 08:24:13;;;;;;;9.73;3.60;;;;;;;-145.63;34.30;37471.81;5138196;27;20024;-64
2023/08/17 08:26:39;;;;;;;5.68;3.10;;;;;;;-145.63;34.00;37495.25;5124195;28;20028;-64
2023/08/17 08:29:05;;;;;;;4.22;2.97;;;;;;;-145.63;33.90;37463.97;5123552;28;20031;-64
2023/08/17 08:31:30;;;;;;;4.65;3.47;;;;;;;-145.63;34.19;37428.78;5132427;27;20054;-64
2023/08/17 08:33:56;;;;;;;5.75;3.15;;;;;;;-145.63;32.15;37440.53;5123899;28;20039;-64
2023/08/17 08:36:22;;;;;;;5.63;3.33;;;;;;;-145.63;33.65;37377.97;5123723;28;20422;-64
2023/08/17 08:38:47;;;;;;;4.50;3.00;;;;;;;-145.63;32.57;37487.44;5123730;28;20038;-64
2023/08/17 08:41:13;;;;;;;4.03;3.05;;;;;;;-145.63;31.93;37428.78;5101780;28;20035;-62
2023/08/17 08:43:39;;;;;;;5.78;2.75;;;;;;;-145.63;31.72;37370.16;5123492;28;20347;-64
2023/08/17 08:46:05;;;;;;;4.80;2.78;;;;;;;-145.63;30.21;37352.56;5130532;27;20027;-66
2023/08/17 08:48:32;;;;;;;4.60;2.45;;;;;;;-145.63;30.49;37381.88;5125709;27;20140;-63
2023/08/17 08:51:00;;;;;;;5.93;4.68;;;;;;;-145.63;30.92;37333.00;5127199;27;20082;-62
2023/08/17 08:53:38;;;;;;;4.47;2.97;;;;;;;-145.63;31.18;37237.22;5129132;27;20027;-65
2023/08/17 08:56:06;;;;;;;3.22;2.55;;;;;;;-145.63;29.93;37245.06;5118655;28;20031;-65
2023/08/17 08:58:34;;;;;;;3.78;2.80;;;;;;;-145.63;30.26;37262.63;5125690;27;20035;-63
2023/08/17 09:01:02;;;;;;;6.32;4.00;;;;;;;-145.63;30.61;37204.00;5122484;28;20039;-64
2023/08/17 09:03:28;;;;;;;3.88;2.85;;;;;;;-145.63;29.61;37133.63;5123982;28;20313;-64
2023/08/17 09:05:57;;;;;;;5.25;3.30;;;;;;;-145.63;30.60;37082.81;5126871;27;20350;-64
2023/08/17 09:08:29;;;;;;;6.32;3.97;;;;;;;-145.63;29.96;37045.66;5125844;28;20019;-64
2023/08/17 09:10:54;;;;;;;;;;;;;;;-145.63;29.22;37082.81;5124180;28;20308;-64
2023/08/17 09:13:20;;;;;;;4.05;2.92;;;;;;;-145.63;29.30;37049.59;5138841;28;19948;-64
2023/08/17 09:15:45;;;;;;;3.97;2.95;;;;;;;-145.63;29.61;36803.31;5115654;28;20027;-64
2023/08/17 09:18:11;;;;;;;5.07;3.20;;;;;;;-145.63;30.04;36994.84;5126299;28;20216;-64
2023/08/17 09:20:47;;;;;;;3.13;2.83;;;;;;;-145.63;29.71;36899.06;5124266;28;20022;-63
2023/08/17 09:23:19;;;;;;;6.20;3.63;;;;;;;-145.63;29.71;36908.84;5143914;28;20204;-63
2023/08/17 09:25:46;;;;;;;6.45;3.00;;;;;;;-145.63;29.08;37000.72;5125378;28;20031;-64
2023/08/17 09:28:14;;;;;;;4.70;3.25;;;;;;;-145.63;29.38;36934.25;5137295;28;20047;-63
2023/08/17 09:30:57;;;;;;;5.50;3.88;;;;;;;-145.63;29.34;36990.94;5134356;28;20032;-64
2023/08/17 09:33:25;;;;;;;4.45;3.22;;;;;;;-145.63;30.25;36951.84;5130201;28;20072;-63
2023/08/17 09:35:51;;;;;;;4.78;3.30;;;;;;;-145.63;30.16;36944.03;5130009;28;20027;-64
2023/08/17 09:38:18;;;;;;;4.75;2.65;;;;;;;-145.63;28.14;37024.16;5125326;28;20102;-64
2023/08/17 09:40:43;;;;;;;3.53;2.47;;;;;;;-145.63;28.36;36994.84;5138188;27;20053;-64
2023/08/17 09:43:10;;;;;;;3.40;2.92;;;;;;;-145.63;28.93;37024.16;5127071;28;20094;-63
2023/08/17 09:45:38;;;;;;;4.60;2.63;;;;;;;-145.63;28.56;37076.94;5117557;27;20322;-63
2023/08/17 09:48:04;;;;;;;6.30;3.03;;;;;;;-145.63;28.96;37090.63;5143420;27;20019;-64
2023/08/17 09:50:29;;;;;;;3.92;2.58;;;;;;;-145.63;28.50;37104.31;5130220;27;20050;-66
2023/08/17 09:52:55;;;;;;;6.00;4.50;;;;;;;-145.63;30.25;37086.72;5136531;27;20015;-64
2023/08/17 09:55:24;;;;;;;6.47;4.78;;;;;;;-145.63;30.08;37127.78;5132756;27;20061;-64
2023/08/17 09:57:51;;;;;;;4.28;3.35;;;;;;;-145.63;28.92;37092.59;5136949;27;20054;-64
2023/08/17 10:00:20;;;;;;;6.03;4.50;;;;;;;-145.63;29.74;37065.22;5140888;27;20100;-64
2023/08/17 10:02:49;;;;;;;7.07;4.95;;;;;;;-145.63;29.40;37069.13;5126731;28;20107;-63
2023/08/17 10:05:18;;;;;;;5.57;2.50;;;;;;;-145.63;27.30;37155.13;5126648;28;20036;-63
2023/08/17 10:07:50;;;;;;;6.03;2.63;;;;;;;-145.63;27.45;37174.69;5127738;27;20061;-63
2023/08/17 10:10:21;;;;;;;2.80;2.25;;;;;;;-145.63;27.86;37262.63;5123346;27;20035;-63
2023/08/17 10:13:07;;;;;;;;;;;;;;;-145.63;28.08;37104.31;5129181;27;20068;-64
2023/08/17 10:15:49;;;;;;;3.38;2.45;;;;;;;-145.63;28.94;37162.94;5113637;27;20001;-63
2023/08/17 10:18:29;;;;;;;3.75;2.90;;;;;;;-145.63;28.45;37092.59;5122980;28;20343;-64
2023/08/17 10:21:02;;;;;;;3.22;2.78;;;;;;;-145.63;27.51;37096.50;5129343;27;20035;-64
2023/08/17 10:23:28;;;;;;;5.25;3.03;;;;;;;-145.63;26.87;37145.34;5125033;27;20215;-62
2023/08/17 10:25:54;;;;;;;4.13;2.72;;;;;;;-145.63;27.55;37137.53;5128984;27;20019;-62
2023/08/17 10:28:24;;;;;;;5.32;2.80;;;;;;;-145.63;27.27;37121.91;5124129;27;20016;-63
2023/08/17 10:30:50;;;;;;;3.13;2.40;;;;;;;-145.63;27.60;37104.31;5127593;27;20042;-65
2023/08/17 10:33:18;;;;;;;3.25;2.90;;;;;;;-145.63;28.06;37065.22;5122339;27;20102;-64
2023/08/17 10:35:45;;;;;;;3.42;2.55;;;;;;;-145.63;28.54;37078.91;5126851;27;20035;-64
2023/08/17 10:38:11;;;;;;;2.83;2.17;;;;;;;-145.63;26.59;37116.03;5125926;27;20028;-64
2023/08/17 10:40:40;;;;;;;4.38;2.50;;;;;;;-145.63;27.57;37174.69;5123774;27;20548;-63
2023/08/17 10:43:06;;;;;;;3.53;2.42;;;;;;;-145.63;27.31;37131.69;5123984;28;20072;-63
2023/08/17 10:45:38;;;;;;;2.70;2.50;;;;;;;-145.63;27.86;37147.31;5107251;28;20508;-63
2023/08/17 10:48:07;;;;;;;2.80;2.33;;;;;;;-145.63;27.79;37096.50;5109244;27;20027;-64
2023/08/17 10:50:33;;;;;;;5.78;3.10;;;;;;;-145.63;28.20;37102.34;5122906;27;20027;-63
2023/08/17 10:53:04;;;;;;;3.58;2.80;;;;;;;-145.63;28.58;37049.59;5124096;28;20032;-64
2023/08/17 10:55:37;;;;;;;4.25;2.97;;;;;;;-145.63;28.07;37104.31;5125820;27;20031;-63
2023/08/17 10:58:04;;;;;;;9.93;4.70;;;;;;;-145.63;30.14;37127.78;5137895;27;20019;-64
2023/08/17 11:00:41;;;;;;;4.40;3.10;;;;;;;-145.63;28.95;37145.34;5140610;27;20030;-64
2023/08/17 11:03:12;;;;;;;4.45;2.60;;;;;;;-145.63;28.20;37139.50;5123868;27;20046;-64
2023/08/17 11:05:38;;;;;;;3.42;2.83;;;;;;;-145.63;28.19;37061.31;5125637;28;20094;-64
2023/08/17 11:08:06;;;;;;;4.35;2.80;;;;;;;-145.63;27.75;37118.00;5134237;27;20027;-64
2023/08/17 11:10:33;;;;;;;6.30;2.70;;;;;;;-145.63;27.19;37153.19;5128157;27;20031;-64